logo
Search for airport 
image banner adimage banner adimage banner ad
image banner ad

YWLU - Wiluna

Located in Wiluna, Australia

ICAO - YWLU, IATA - WUN

Data provided by Airmate  

General information

Coordinates: S26°37'45" E120°13'14"
Elevation is 1649 feet MSL.
 
View others Airports in Western Australia

Operational data

Special qualification required
Current time UTC:
Current local time:
Weather at : - ( 0 km )
METAR: TXKF 170155Z 04011KT 9999 SCT020 24/21 Q1019
View NOTAMs / SUP AIP / TFR affecting this airport [VIEW]
Communications frequencies: [VIEW]

Runways:

RWY identifierQFULength (ft)Width (ft)SurfaceLDA (ft)
15147°594298ASP
33327°594298ASP

Airport contact information

Address: Wiluna Australia

Satellite view of YWLU